createdAt,value
2022-08-05T00:00:38.495Z,0
2022-08-05T00:01:54.785Z,0
2022-08-05T00:03:10.095Z,0
2022-08-05T00:04:26.393Z,0
2022-08-05T00:05:42.675Z,0
2022-08-05T00:06:58.968Z,0
2022-08-05T00:08:15.256Z,0
2022-08-05T00:09:31.559Z,0
2022-08-05T00:10:47.848Z,0
2022-08-05T00:12:04.133Z,0
2022-08-05T00:13:20.000Z,0
2022-08-05T00:14:36.724Z,0
2022-08-05T00:15:53.017Z,0
2022-08-05T00:17:09.314Z,0
2022-08-05T00:18:25.611Z,0
2022-08-05T00:19:40.925Z,0
2022-08-05T00:20:57.210Z,0
2022-08-05T00:22:13.498Z,0
2022-08-05T00:23:29.785Z,0
2022-08-05T00:24:46.085Z,0
2022-08-05T00:26:02.375Z,0
2022-08-05T00:27:18.681Z,0
2022-08-05T00:28:34.955Z,0
2022-08-05T00:29:51.264Z,0
2022-08-05T00:31:07.547Z,0
2022-08-05T00:32:23.852Z,0
2022-08-05T00:33:40.139Z,0
2022-08-05T00:34:56.430Z,0
2022-08-05T00:36:11.745Z,0
2022-08-05T00:37:28.033Z,0
2022-08-05T00:38:44.327Z,0
2022-08-05T00:40:00.612Z,0
2022-08-05T00:41:16.914Z,0
2022-08-05T00:42:33.199Z,0
2022-08-05T00:43:49.490Z,0
2022-08-05T00:45:05.795Z,0
2022-08-05T00:46:22.069Z,0
2022-08-05T00:47:38.376Z,0
2022-08-05T00:48:54.671Z,0
2022-08-05T00:50:10.953Z,0
2022-08-05T00:51:27.249Z,0
2022-08-05T00:52:42.560Z,0
2022-08-05T00:53:58.856Z,0
2022-08-05T00:55:15.140Z,0
2022-08-05T00:56:31.425Z,0
2022-08-05T00:57:47.725Z,0
2022-08-05T00:59:04.021Z,0
2022-08-05T01:00:19.344Z,0
2022-08-05T01:01:35.622Z,0
2022-08-05T01:02:51.920Z,0
2022-08-05T01:04:08.211Z,0
2022-08-05T01:05:24.506Z,0
2022-08-05T01:06:40.806Z,0
2022-08-05T01:07:57.091Z,0
2022-08-05T01:09:13.373Z,0
2022-08-05T01:10:29.670Z,0
2022-08-05T01:11:45.978Z,0
2022-08-05T01:13:02.256Z,0
2022-08-05T01:14:18.549Z,0
2022-08-05T01:15:34.839Z,0
2022-08-05T01:16:50.164Z,0
2022-08-05T01:18:06.447Z,0
2022-08-05T01:19:22.747Z,0
2022-08-05T01:20:39.034Z,0
2022-08-05T01:21:55.332Z,0
2022-08-05T01:23:11.629Z,0
2022-08-05T01:24:27.909Z,0
2022-08-05T01:25:44.203Z,0
2022-08-05T01:27:00.489Z,0
2022-08-05T01:28:16.793Z,0
2022-08-05T01:29:33.083Z,0
2022-08-05T01:30:49.382Z,0
2022-08-05T01:32:05.663Z,0
2022-08-05T01:33:20.969Z,0
2022-08-05T01:34:37.262Z,0
2022-08-05T01:35:53.570Z,0
2022-08-05T01:37:09.860Z,0
2022-08-05T01:38:26.156Z,0
2022-08-05T01:39:42.447Z,0
2022-08-05T01:40:58.732Z,0
2022-08-05T01:42:15.022Z,0
2022-08-05T01:43:31.312Z,0
2022-08-05T01:44:47.617Z,0
2022-08-05T01:46:03.909Z,0
2022-08-05T01:47:20.192Z,0
2022-08-05T01:48:36.482Z,0
2022-08-05T01:49:51.800Z,0
2022-08-05T01:51:08.094Z,0
2022-08-05T01:52:24.371Z,0
2022-08-05T01:53:40.681Z,0
2022-08-05T01:54:56.973Z,0
2022-08-05T01:56:13.264Z,0
2022-08-05T01:57:29.544Z,0
2022-08-05T01:58:45.845Z,0
2022-08-05T02:00:02.133Z,0
2022-08-05T02:01:18.430Z,0
2022-08-05T02:02:34.721Z,0
2022-08-05T02:03:51.018Z,0
2022-08-05T02:05:07.299Z,0
2022-08-05T02:06:22.606Z,0
2022-08-05T02:07:38.915Z,0
2022-08-05T02:08:55.201Z,0
2022-08-05T02:10:11.493Z,0
2022-08-05T02:11:27.774Z,0
2022-08-05T02:12:44.087Z,0
2022-08-05T02:14:00.377Z,0
2022-08-05T02:15:16.654Z,0
2022-08-05T02:16:32.949Z,0
2022-08-05T02:17:49.239Z,0
2022-08-05T02:19:05.551Z,0
2022-08-05T02:20:21.829Z,0
2022-08-05T02:21:38.135Z,0
2022-08-05T02:22:53.434Z,0
2022-08-05T02:24:09.718Z,0
2022-08-05T02:25:26.022Z,0
2022-08-05T02:26:42.303Z,0
2022-08-05T02:27:58.595Z,0
2022-08-05T02:29:14.904Z,0
2022-08-05T02:30:31.189Z,0
2022-08-05T02:31:47.480Z,0
2022-08-05T02:33:03.783Z,0
2022-08-05T02:34:20.056Z,0
2022-08-05T02:35:36.368Z,0
2022-08-05T02:36:52.651Z,0
2022-08-05T02:38:08.947Z,0
2022-08-05T02:39:24.248Z,0
2022-08-05T02:40:40.535Z,0
2022-08-05T02:41:56.844Z,0
2022-08-05T02:43:13.128Z,0
2022-08-05T02:44:29.428Z,0
2022-08-05T02:45:45.711Z,0
2022-08-05T02:47:02.002Z,0
2022-08-05T02:48:18.289Z,0
2022-08-05T02:49:34.587Z,0
2022-08-05T02:50:50.882Z,0
2022-08-05T02:52:07.169Z,0
2022-08-05T02:53:23.468Z,0
2022-08-05T02:54:39.764Z,0
2022-08-05T02:55:55.076Z,0
2022-08-05T02:57:11.362Z,0
2022-08-05T02:58:27.648Z,0
2022-08-05T02:59:43.959Z,0
2022-08-05T03:01:00.245Z,0
2022-08-05T03:02:16.523Z,0
2022-08-05T03:03:32.763Z,0
2022-08-05T03:04:49.072Z,0
2022-08-05T03:06:05.308Z,0
2022-08-05T03:07:21.551Z,0
2022-08-05T03:08:37.787Z,0
2022-08-05T03:09:54.073Z,0
2022-08-05T03:11:10.335Z,0
2022-08-05T03:12:25.585Z,0
2022-08-05T03:13:41.831Z,0
2022-08-05T03:14:58.081Z,0
2022-08-05T03:16:14.328Z,0
2022-08-05T03:17:30.566Z,0
2022-08-05T03:18:46.792Z,0
2022-08-05T03:20:03.036Z,0
2022-08-05T03:21:19.281Z,0
2022-08-05T03:22:35.522Z,0
2022-08-05T03:23:51.763Z,0
2022-08-05T03:25:08.001Z,0
2022-08-05T03:26:24.224Z,0
2022-08-05T03:27:40.464Z,0
2022-08-05T03:28:55.721Z,0
2022-08-05T03:30:11.960Z,0
2022-08-05T03:31:28.205Z,0
2022-08-05T03:32:44.446Z,0
2022-08-05T03:34:00.683Z,0
2022-08-05T03:35:16.914Z,0
2022-08-05T03:36:33.156Z,0
2022-08-05T03:37:49.388Z,0
2022-08-05T03:39:05.627Z,0
2022-08-05T03:40:21.878Z,0
2022-08-05T03:41:38.098Z,0
2022-08-05T03:42:54.354Z,0
2022-08-05T03:44:10.591Z,0
2022-08-05T03:45:25.842Z,5
2022-08-05T03:46:42.075Z,5
2022-08-05T03:47:58.324Z,5
2022-08-05T03:49:14.550Z,5
2022-08-05T03:50:30.802Z,5
2022-08-05T03:51:47.023Z,5
2022-08-05T03:53:03.265Z,5
2022-08-05T03:54:19.502Z,5
2022-08-05T03:55:35.740Z,5
2022-08-05T03:56:51.978Z,11
2022-08-05T03:58:08.222Z,11
2022-08-05T03:59:24.459Z,11
2022-08-05T04:00:40.695Z,11
2022-08-05T04:01:55.964Z,11
2022-08-05T04:03:12.188Z,11
2022-08-05T04:04:28.433Z,11
2022-08-05T04:05:44.678Z,11
2022-08-05T04:07:00.907Z,11
2022-08-05T04:08:17.143Z,16
2022-08-05T04:09:33.394Z,16
2022-08-05T04:10:49.626Z,16
2022-08-05T04:12:05.874Z,16
2022-08-05T04:13:22.104Z,16
2022-08-05T04:14:38.337Z,16
2022-08-05T04:15:54.579Z,16
2022-08-05T04:17:10.824Z,16
2022-08-05T04:18:26.063Z,16
2022-08-05T04:19:42.315Z,16
2022-08-05T04:20:58.544Z,16
2022-08-05T04:22:14.795Z,16
2022-08-05T04:23:31.027Z,22
2022-08-05T04:24:47.274Z,22
2022-08-05T04:26:03.507Z,22
2022-08-05T04:27:19.737Z,22
2022-08-05T04:28:35.975Z,22
2022-08-05T04:29:52.217Z,22
2022-08-05T04:31:08.461Z,22
2022-08-05T04:33:40.934Z,28
2022-08-05T04:34:56.184Z,28
2022-08-05T04:36:12.420Z,28
2022-08-05T04:37:28.657Z,28
2022-08-05T04:38:44.908Z,28
2022-08-05T04:40:01.136Z,28
2022-08-05T04:41:17.385Z,28
2022-08-05T04:42:33.626Z,33
2022-08-05T04:43:49.853Z,33
2022-08-05T04:45:06.090Z,33
2022-08-05T04:46:22.331Z,33
2022-08-05T04:47:38.576Z,33
2022-08-05T04:48:54.807Z,33
2022-08-05T04:50:11.058Z,39
2022-08-05T04:51:26.303Z,39
2022-08-05T04:52:42.538Z,39
2022-08-05T04:53:58.788Z,39
2022-08-05T04:55:15.027Z,39
2022-08-05T04:56:31.262Z,39
2022-08-05T04:57:47.493Z,39
2022-08-05T04:59:03.733Z,39
2022-08-05T05:00:19.965Z,39
2022-08-05T05:01:36.217Z,39
2022-08-05T05:02:52.449Z,39
2022-08-05T05:04:08.685Z,39
2022-08-05T05:05:24.936Z,39
2022-08-05T05:06:41.168Z,39
2022-08-05T05:07:56.424Z,39
2022-08-05T05:09:12.664Z,39
2022-08-05T05:10:28.904Z,39
2022-08-05T05:11:45.139Z,39
2022-08-05T05:13:01.363Z,39
2022-08-05T05:14:17.609Z,39
2022-08-05T05:15:32.881Z,39
2022-08-05T05:16:49.115Z,39
2022-08-05T05:18:05.344Z,45
2022-08-05T05:19:21.580Z,45
2022-08-05T05:20:37.835Z,45
2022-08-05T05:21:54.056Z,50
2022-08-05T05:23:10.294Z,50
2022-08-05T05:24:26.536Z,50
2022-08-05T05:25:42.777Z,50
2022-08-05T05:26:59.022Z,56
2022-08-05T05:28:15.251Z,61
2022-08-05T05:29:31.504Z,61
2022-08-05T05:30:47.724Z,61
2022-08-05T05:32:02.985Z,61
2022-08-05T05:33:19.225Z,61
2022-08-05T05:34:35.455Z,67
2022-08-05T05:35:51.700Z,67
2022-08-05T05:37:07.931Z,67
2022-08-05T05:38:24.179Z,67
2022-08-05T05:39:40.421Z,67
2022-08-05T05:40:56.646Z,67
2022-08-05T05:42:12.884Z,67
2022-08-05T05:43:29.138Z,67
2022-08-05T05:44:45.368Z,73
2022-08-05T05:46:01.604Z,73
2022-08-05T05:47:17.859Z,73
2022-08-05T05:48:33.096Z,73
2022-08-05T05:49:49.347Z,73
2022-08-05T05:51:05.589Z,73
2022-08-05T05:52:21.814Z,73
2022-08-05T05:53:38.063Z,78
2022-08-05T05:54:54.300Z,78
2022-08-05T05:56:10.531Z,78
2022-08-05T05:57:26.777Z,78
2022-08-05T05:58:43.018Z,78
2022-08-05T05:59:59.245Z,78
2022-08-05T06:01:15.481Z,84
2022-08-05T06:02:31.716Z,84
2022-08-05T06:03:47.960Z,84
2022-08-05T06:05:03.225Z,84
2022-08-05T06:06:19.454Z,84
2022-08-05T06:07:35.702Z,90
2022-08-05T06:08:51.938Z,90
2022-08-05T06:10:08.180Z,90
2022-08-05T06:11:24.417Z,95
2022-08-05T06:12:40.655Z,95
2022-08-05T06:13:56.887Z,101
2022-08-05T06:15:13.116Z,101
2022-08-05T06:16:29.356Z,106
2022-08-05T06:17:45.595Z,106
2022-08-05T06:19:01.844Z,112
2022-08-05T06:20:18.072Z,123
2022-08-05T06:21:33.325Z,129
2022-08-05T06:22:49.584Z,135
2022-08-05T06:24:05.807Z,135
2022-08-05T06:25:22.061Z,129
2022-08-05T06:26:38.298Z,123
2022-08-05T06:27:54.521Z,123
2022-08-05T06:29:10.768Z,123
2022-08-05T06:30:26.996Z,118
2022-08-05T06:31:43.239Z,118
2022-08-05T06:32:59.480Z,123
2022-08-05T06:34:15.717Z,135
2022-08-05T06:35:31.959Z,157
2022-08-05T06:36:48.198Z,163
2022-08-05T06:38:03.450Z,168
2022-08-05T06:39:19.699Z,168
2022-08-05T06:40:35.931Z,163
2022-08-05T06:41:52.176Z,151
2022-08-05T06:43:08.398Z,151
2022-08-05T06:44:24.643Z,135
2022-08-05T06:45:40.891Z,135
2022-08-05T06:46:57.125Z,112
2022-08-05T06:48:13.365Z,106
2022-08-05T06:49:29.610Z,101
2022-08-05T06:50:45.829Z,101
2022-08-05T06:52:02.088Z,95
2022-08-05T06:53:18.309Z,90
2022-08-05T06:54:33.563Z,84
2022-08-05T06:55:49.806Z,73
2022-08-05T06:57:06.055Z,67
2022-08-05T06:58:22.290Z,61
2022-08-05T06:59:38.523Z,56
2022-08-05T07:00:54.754Z,56
2022-08-05T07:02:10.993Z,56
2022-08-05T07:03:27.250Z,56
2022-08-05T07:04:43.486Z,50
2022-08-05T07:05:59.724Z,56
2022-08-05T07:07:15.964Z,61
2022-08-05T07:08:32.191Z,67
2022-08-05T07:09:48.444Z,73
2022-08-05T07:11:03.694Z,78
2022-08-05T07:12:19.930Z,84
2022-08-05T07:13:36.157Z,90
2022-08-05T07:14:52.410Z,95
2022-08-05T07:16:08.648Z,95
2022-08-05T07:17:24.882Z,101
2022-08-05T07:18:41.113Z,112
2022-08-05T07:19:57.355Z,123
2022-08-05T07:21:13.598Z,129
2022-08-05T07:22:29.826Z,135
2022-08-05T07:23:46.085Z,146
2022-08-05T07:25:02.307Z,151
2022-08-05T07:26:18.563Z,157
2022-08-05T07:27:33.809Z,163
2022-08-05T07:28:50.037Z,168
2022-08-05T07:30:06.278Z,168
2022-08-05T07:31:22.512Z,174
2022-08-05T07:32:38.753Z,174
2022-08-05T07:33:55.004Z,185
2022-08-05T07:35:11.241Z,196
2022-08-05T07:36:27.486Z,202
2022-08-05T07:37:43.709Z,219
2022-08-05T07:38:59.962Z,230
2022-08-05T07:40:16.186Z,213
2022-08-05T07:41:32.433Z,236
2022-08-05T07:42:48.678Z,230
2022-08-05T07:44:03.923Z,236
2022-08-05T07:45:20.169Z,219
2022-08-05T07:46:36.404Z,236
2022-08-05T07:47:52.641Z,230
2022-08-05T07:49:08.875Z,202
2022-08-05T07:50:25.118Z,185
2022-08-05T07:51:41.347Z,191
2022-08-05T07:52:57.590Z,180
2022-08-05T07:54:13.841Z,174
2022-08-05T07:55:30.067Z,174
2022-08-05T07:56:46.316Z,174
2022-08-05T07:58:02.556Z,168
2022-08-05T07:59:18.785Z,163
2022-08-05T08:00:34.042Z,168
2022-08-05T08:01:50.290Z,163
2022-08-05T08:03:06.525Z,157
2022-08-05T08:04:22.755Z,163
2022-08-05T08:05:38.987Z,191
2022-08-05T08:06:55.240Z,191
2022-08-05T08:08:11.482Z,236
2022-08-05T08:09:27.720Z,236
2022-08-05T08:10:43.946Z,230
2022-08-05T08:12:00.184Z,230
2022-08-05T08:13:16.432Z,236
2022-08-05T08:14:32.671Z,219
2022-08-05T08:15:48.912Z,213
2022-08-05T08:17:04.170Z,213
2022-08-05T08:18:20.394Z,230
2022-08-05T08:19:36.643Z,247
2022-08-05T08:20:52.865Z,258
2022-08-05T08:22:09.116Z,281
2022-08-05T08:23:25.352Z,292
2022-08-05T08:24:41.594Z,286
2022-08-05T08:25:57.821Z,292
2022-08-05T08:27:14.061Z,292
2022-08-05T08:28:30.303Z,292
2022-08-05T08:29:46.552Z,286
2022-08-05T08:31:02.778Z,275
2022-08-05T08:32:19.028Z,264
2022-08-05T08:33:34.273Z,281
2022-08-05T08:34:50.505Z,258
2022-08-05T08:36:06.761Z,275
2022-08-05T08:37:22.989Z,225
2022-08-05T08:38:39.235Z,208
2022-08-05T08:39:55.479Z,213
2022-08-05T08:41:11.709Z,174
2022-08-05T08:42:27.954Z,163
2022-08-05T08:43:44.181Z,157
2022-08-05T08:45:00.430Z,146
2022-08-05T08:46:16.655Z,140
2022-08-05T08:47:32.905Z,140
2022-08-05T08:48:49.132Z,146
2022-08-05T08:50:04.391Z,151
2022-08-05T08:51:20.629Z,157
2022-08-05T08:52:36.864Z,163
2022-08-05T08:53:53.117Z,174
2022-08-05T08:55:09.359Z,185
2022-08-05T08:56:25.596Z,196
2022-08-05T08:57:41.832Z,196
2022-08-05T08:58:58.063Z,196
2022-08-05T09:00:14.306Z,196
2022-08-05T09:01:30.543Z,213
2022-08-05T09:02:46.787Z,264
2022-08-05T09:04:03.023Z,225
2022-08-05T09:05:19.251Z,253
2022-08-05T09:06:34.518Z,253
2022-08-05T09:07:50.742Z,247
2022-08-05T09:09:06.988Z,258
2022-08-05T09:10:23.231Z,264
2022-08-05T09:11:39.461Z,264
2022-08-05T09:12:55.717Z,270
2022-08-05T09:14:11.945Z,270
2022-08-05T09:15:28.182Z,264
2022-08-05T09:16:44.421Z,258
2022-08-05T09:18:00.656Z,236
2022-08-05T09:19:16.906Z,264
2022-08-05T09:20:33.128Z,264
2022-08-05T09:21:49.380Z,264
2022-08-05T09:23:04.637Z,264
2022-08-05T09:24:20.873Z,264
2022-08-05T09:25:37.106Z,270
2022-08-05T09:26:53.348Z,270
2022-08-05T09:28:09.588Z,275
2022-08-05T09:29:25.830Z,275
2022-08-05T09:30:41.089Z,281
2022-08-05T09:31:57.320Z,292
2022-08-05T09:33:13.569Z,303
2022-08-05T09:34:29.802Z,326
2022-08-05T09:35:46.047Z,348
2022-08-05T09:37:02.290Z,376
2022-08-05T09:38:18.529Z,382
2022-08-05T09:39:34.754Z,382
2022-08-05T09:40:50.998Z,399
2022-08-05T09:42:07.240Z,393
2022-08-05T09:43:23.467Z,343
2022-08-05T09:44:39.704Z,298
2022-08-05T09:45:55.960Z,270
2022-08-05T09:47:11.216Z,264
2022-08-05T09:48:27.458Z,264
2022-08-05T09:49:43.689Z,264
2022-08-05T09:50:59.924Z,275
2022-08-05T09:52:16.172Z,298
2022-08-05T09:53:32.409Z,315
2022-08-05T09:54:48.651Z,343
2022-08-05T09:56:04.877Z,365
2022-08-05T09:57:21.121Z,455
2022-08-05T09:58:37.353Z,410
2022-08-05T09:59:53.588Z,360
2022-08-05T10:01:09.839Z,376
2022-08-05T10:02:26.069Z,416
2022-08-05T10:03:41.331Z,511
2022-08-05T10:04:57.578Z,489
2022-08-05T10:06:13.812Z,416
2022-08-05T10:07:30.036Z,405
2022-08-05T10:08:46.292Z,354
2022-08-05T10:10:02.516Z,286
2022-08-05T10:11:18.771Z,247
2022-08-05T10:12:34.996Z,202
2022-08-05T10:13:51.235Z,174
2022-08-05T10:15:07.487Z,168
2022-08-05T10:16:23.725Z,157
2022-08-05T10:17:39.955Z,168
2022-08-05T10:18:56.188Z,185
2022-08-05T10:20:11.452Z,196
2022-08-05T10:21:27.689Z,208
2022-08-05T10:22:43.919Z,230
2022-08-05T10:24:00.172Z,241
2022-08-05T10:25:16.406Z,309
2022-08-05T10:26:32.655Z,421
2022-08-05T10:27:48.891Z,444
2022-08-05T10:29:05.119Z,444
2022-08-05T10:30:21.367Z,450
2022-08-05T10:31:37.590Z,466
2022-08-05T10:32:53.846Z,478
2022-08-05T10:34:10.073Z,495
2022-08-05T10:35:26.322Z,523
2022-08-05T10:36:41.582Z,556
2022-08-05T10:37:57.805Z,562
2022-08-05T10:39:14.044Z,416
2022-08-05T10:40:30.292Z,506
2022-08-05T10:41:46.537Z,551
2022-08-05T10:43:02.774Z,427
2022-08-05T10:44:19.008Z,849
2022-08-05T10:45:35.237Z,1057
2022-08-05T10:46:51.490Z,1198
2022-08-05T10:48:07.731Z,1260
2022-08-05T10:49:23.961Z,601
2022-08-05T10:50:40.201Z,1271
2022-08-05T10:51:56.436Z,720
2022-08-05T10:53:11.703Z,483
2022-08-05T10:54:27.935Z,1265
2022-08-05T10:55:44.167Z,1395
2022-08-05T10:57:00.409Z,950
2022-08-05T10:58:16.651Z,1012
2022-08-05T10:59:32.883Z,1063
2022-08-05T11:00:49.130Z,1350
2022-08-05T11:02:05.364Z,1417
2022-08-05T11:03:21.614Z,860
2022-08-05T11:04:37.858Z,742
2022-08-05T11:05:54.098Z,354
2022-08-05T11:07:10.337Z,376
2022-08-05T11:08:26.568Z,360
2022-08-05T11:09:41.814Z,382
2022-08-05T11:10:58.052Z,292
2022-08-05T11:12:14.305Z,258
2022-08-05T11:13:30.531Z,298
2022-08-05T11:14:46.788Z,1051
2022-08-05T11:16:03.021Z,658
2022-08-05T11:17:19.254Z,534
2022-08-05T11:18:35.507Z,1215
2022-08-05T11:19:51.729Z,1395
2022-08-05T11:21:07.974Z,1389
2022-08-05T11:22:24.207Z,1406
2022-08-05T11:23:40.459Z,1417
2022-08-05T11:24:56.695Z,1473
2022-08-05T11:26:11.946Z,1479
2022-08-05T11:27:28.197Z,1282
2022-08-05T11:28:44.427Z,770
2022-08-05T11:30:00.676Z,871
2022-08-05T11:31:16.915Z,1496
2022-08-05T11:32:33.149Z,1800
2022-08-05T11:33:49.382Z,1642
2022-08-05T11:35:05.624Z,1552
2022-08-05T11:36:21.862Z,1569
2022-08-05T11:37:38.107Z,1530
2022-08-05T11:38:54.340Z,1513
2022-08-05T11:40:10.586Z,933
2022-08-05T11:41:26.823Z,787
2022-08-05T11:42:42.085Z,815
2022-08-05T11:43:58.322Z,438
2022-08-05T11:45:14.562Z,405
2022-08-05T11:46:30.799Z,365
2022-08-05T11:47:47.033Z,331
2022-08-05T11:49:03.267Z,303
2022-08-05T11:50:19.511Z,292
2022-08-05T11:51:35.744Z,320
2022-08-05T11:52:51.990Z,348
2022-08-05T11:54:08.240Z,371
2022-08-05T11:55:24.477Z,376
2022-08-05T11:56:40.707Z,990
2022-08-05T11:57:56.952Z,1023
2022-08-05T11:59:12.212Z,995
2022-08-05T12:00:28.451Z,1023
2022-08-05T12:01:44.683Z,1001
2022-08-05T12:03:00.915Z,658
2022-08-05T12:04:17.166Z,871
2022-08-05T12:05:33.394Z,877
2022-08-05T12:06:49.638Z,978
2022-08-05T12:08:05.884Z,945
2022-08-05T12:09:22.127Z,1012
2022-08-05T12:10:38.359Z,1080
2022-08-05T12:11:54.606Z,1068
2022-08-05T12:13:10.834Z,894
2022-08-05T12:14:27.081Z,1215
2022-08-05T12:15:42.329Z,877
2022-08-05T12:16:58.577Z,787
2022-08-05T12:18:14.814Z,866
2022-08-05T12:19:31.039Z,731
2022-08-05T12:20:47.296Z,669
2022-08-05T12:22:03.531Z,832
2022-08-05T12:23:19.761Z,1068
2022-08-05T12:24:36.009Z,894
2022-08-05T12:25:52.236Z,911
2022-08-05T12:27:08.485Z,731
2022-08-05T12:28:24.727Z,697
2022-08-05T12:30:57.193Z,1378
2022-08-05T12:32:12.463Z,1361
2022-08-05T12:33:28.698Z,1462
2022-08-05T12:34:44.926Z,1490
2022-08-05T12:36:01.168Z,1631
2022-08-05T12:37:17.425Z,1541
2022-08-05T12:38:33.657Z,1305
2022-08-05T12:39:49.899Z,860
2022-08-05T12:41:06.135Z,1085
2022-08-05T12:42:22.376Z,1299
2022-08-05T12:43:38.605Z,843
2022-08-05T12:44:54.860Z,506
2022-08-05T12:46:11.093Z,669
2022-08-05T12:47:27.329Z,720
2022-08-05T12:48:42.585Z,680
2022-08-05T12:49:58.815Z,630
2022-08-05T12:51:15.067Z,759
2022-08-05T12:52:31.307Z,911
2022-08-05T12:53:47.535Z,781
2022-08-05T12:55:03.781Z,652
2022-08-05T12:56:20.021Z,618
2022-08-05T12:57:36.261Z,871
2022-08-05T12:58:52.491Z,720
2022-08-05T13:00:08.738Z,950
2022-08-05T13:01:24.973Z,697
2022-08-05T13:02:41.217Z,483
2022-08-05T13:03:57.457Z,804
2022-08-05T13:05:12.711Z,472
2022-08-05T13:06:28.956Z,1625
2022-08-05T13:07:45.199Z,1451
2022-08-05T13:09:01.431Z,1490
2022-08-05T13:10:17.675Z,1198
2022-08-05T13:11:33.909Z,388
2022-08-05T13:12:50.142Z,343
2022-08-05T13:14:06.392Z,309
2022-08-05T13:15:22.628Z,343
2022-08-05T13:16:38.860Z,354
2022-08-05T13:17:55.098Z,343
2022-08-05T13:19:11.334Z,360
2022-08-05T13:20:27.585Z,309
2022-08-05T13:21:42.845Z,309
2022-08-05T13:22:59.078Z,309
2022-08-05T13:24:15.308Z,303
2022-08-05T13:25:31.555Z,270
2022-08-05T13:26:47.784Z,230
2022-08-05T13:28:04.032Z,196
2022-08-05T13:29:20.259Z,191
2022-08-05T13:30:36.501Z,191
2022-08-05T13:31:52.741Z,191
2022-08-05T13:33:08.988Z,202
2022-08-05T13:34:25.220Z,219
2022-08-05T13:35:41.462Z,225
2022-08-05T13:36:57.693Z,219
2022-08-05T13:38:12.950Z,208
2022-08-05T13:39:29.206Z,219
2022-08-05T13:40:45.444Z,258
2022-08-05T13:42:01.676Z,298
2022-08-05T13:43:17.907Z,264
2022-08-05T13:44:34.147Z,253
2022-08-05T13:45:49.406Z,241
2022-08-05T13:47:05.652Z,219
2022-08-05T13:48:21.898Z,230
2022-08-05T13:49:38.131Z,253
2022-08-05T13:50:54.370Z,354
2022-08-05T13:52:10.611Z,444
2022-08-05T13:53:26.847Z,511
2022-08-05T13:54:43.090Z,911
2022-08-05T13:55:59.327Z,956
2022-08-05T13:57:15.569Z,607
2022-08-05T13:58:31.810Z,551
2022-08-05T13:59:48.048Z,326
2022-08-05T14:01:04.283Z,315
2022-08-05T14:02:19.523Z,427
2022-08-05T14:03:35.777Z,483
2022-08-05T14:04:52.020Z,472
2022-08-05T14:06:08.244Z,483
2022-08-05T14:07:24.500Z,742
2022-08-05T14:08:40.731Z,315
2022-08-05T14:09:56.964Z,286
2022-08-05T14:11:13.208Z,613
2022-08-05T14:12:29.434Z,1327
2022-08-05T14:13:45.680Z,1462
2022-08-05T14:15:01.932Z,1395
2022-08-05T14:16:18.153Z,461
2022-08-05T14:17:34.393Z,489
2022-08-05T14:18:49.658Z,303
2022-08-05T14:20:05.898Z,821
2022-08-05T14:21:22.141Z,1192
2022-08-05T14:22:38.378Z,1580
2022-08-05T14:23:54.601Z,1378
2022-08-05T14:25:10.849Z,1378
2022-08-05T14:26:27.092Z,1327
2022-08-05T14:27:43.320Z,1226
2022-08-05T14:28:59.572Z,360
2022-08-05T14:30:15.802Z,1057
2022-08-05T14:31:32.051Z,1209
2022-08-05T14:32:48.291Z,534
2022-08-05T14:34:04.525Z,1080
2022-08-05T14:35:19.774Z,866
2022-08-05T14:36:36.020Z,472
2022-08-05T14:37:52.263Z,517
2022-08-05T14:39:08.504Z,686
2022-08-05T14:40:24.728Z,832
2022-08-05T14:41:40.976Z,883
2022-08-05T14:42:57.205Z,855
2022-08-05T14:44:13.449Z,838
2022-08-05T14:45:29.703Z,765
2022-08-05T14:46:45.939Z,675
2022-08-05T14:48:02.175Z,697
2022-08-05T14:49:18.405Z,894
2022-08-05T14:50:34.659Z,1164
2022-08-05T14:51:49.895Z,303
2022-08-05T14:53:06.152Z,236
2022-08-05T14:54:22.373Z,213
2022-08-05T14:55:38.620Z,208
2022-08-05T14:56:54.870Z,213
2022-08-05T14:58:11.111Z,253
2022-08-05T14:59:27.350Z,253
2022-08-05T15:00:43.574Z,309
2022-08-05T15:01:59.814Z,286
2022-08-05T15:03:16.065Z,241
2022-08-05T15:04:32.292Z,230
2022-08-05T15:05:48.539Z,225
2022-08-05T15:07:04.764Z,225
2022-08-05T15:08:20.030Z,230
2022-08-05T15:09:36.272Z,213
2022-08-05T15:10:52.504Z,219
2022-08-05T15:12:08.750Z,213
2022-08-05T15:13:24.988Z,213
2022-08-05T15:14:41.217Z,213
2022-08-05T15:15:57.455Z,213
2022-08-05T15:17:13.701Z,208
2022-08-05T15:18:29.937Z,213
2022-08-05T15:19:46.173Z,219
2022-08-05T15:21:02.425Z,213
2022-08-05T15:22:18.665Z,213
2022-08-05T15:23:34.902Z,213
2022-08-05T15:24:50.147Z,225
2022-08-05T15:26:06.378Z,219
2022-08-05T15:27:22.624Z,219
2022-08-05T15:28:38.871Z,225
2022-08-05T15:29:55.111Z,241
2022-08-05T15:31:11.342Z,247
2022-08-05T15:32:27.544Z,247
2022-08-05T15:33:43.786Z,258
2022-08-05T15:35:00.020Z,258
2022-08-05T15:36:16.266Z,253
2022-08-05T15:37:32.500Z,241
2022-08-05T15:38:48.726Z,225
2022-08-05T15:40:04.970Z,208
2022-08-05T15:41:20.228Z,208
2022-08-05T15:42:36.477Z,208
2022-08-05T15:43:52.712Z,213
2022-08-05T15:45:08.936Z,219
2022-08-05T15:46:25.191Z,208
2022-08-05T15:47:41.423Z,196
2022-08-05T15:48:57.663Z,157
2022-08-05T15:50:13.904Z,146
2022-08-05T15:51:30.148Z,163
2022-08-05T15:52:46.370Z,174
2022-08-05T15:54:02.613Z,180
2022-08-05T15:55:18.845Z,185
2022-08-05T15:56:35.103Z,191
2022-08-05T15:57:50.351Z,191
2022-08-05T15:59:06.595Z,196
2022-08-05T16:00:22.828Z,196
2022-08-05T16:01:39.073Z,208
2022-08-05T16:02:55.307Z,208
2022-08-05T16:04:11.552Z,202
2022-08-05T16:05:27.787Z,208
2022-08-05T16:06:44.029Z,202
2022-08-05T16:08:00.254Z,202
2022-08-05T16:09:16.499Z,208
2022-08-05T16:10:32.739Z,196
2022-08-05T16:11:48.972Z,196
2022-08-05T16:13:05.222Z,196
2022-08-05T16:14:20.470Z,185
2022-08-05T16:15:36.707Z,174
2022-08-05T16:16:52.938Z,163
2022-08-05T16:18:09.184Z,157
2022-08-05T16:19:25.417Z,146
2022-08-05T16:20:41.661Z,140
2022-08-05T16:21:57.903Z,135
2022-08-05T16:23:14.139Z,135
2022-08-05T16:24:30.368Z,135
2022-08-05T16:25:46.604Z,140
2022-08-05T16:27:02.863Z,140
2022-08-05T16:28:19.093Z,140
2022-08-05T16:29:35.339Z,140
2022-08-05T16:30:50.593Z,129
2022-08-05T16:32:06.824Z,112
2022-08-05T16:33:23.055Z,78
2022-08-05T16:34:39.297Z,73
2022-08-05T16:35:55.537Z,78
2022-08-05T16:37:11.773Z,78
2022-08-05T16:38:28.012Z,90
2022-08-05T16:39:44.257Z,106
2022-08-05T16:41:00.499Z,90
2022-08-05T16:42:16.727Z,84
2022-08-05T16:43:32.957Z,84
2022-08-05T16:44:49.208Z,84
2022-08-05T16:46:05.440Z,73
2022-08-05T16:47:20.693Z,61
2022-08-05T16:48:36.938Z,73
2022-08-05T16:49:53.173Z,78
2022-08-05T16:51:09.417Z,67
2022-08-05T16:52:25.662Z,39
2022-08-05T16:53:41.885Z,45
2022-08-05T16:54:58.124Z,39
2022-08-05T16:56:14.360Z,45
2022-08-05T16:57:30.609Z,39
2022-08-05T16:58:46.854Z,33
2022-08-05T17:00:03.080Z,33
2022-08-05T17:01:19.316Z,33
2022-08-05T17:02:35.560Z,39
2022-08-05T17:03:50.810Z,39
2022-08-05T17:05:07.055Z,39
2022-08-05T17:06:23.299Z,39
2022-08-05T17:07:39.522Z,45
2022-08-05T17:08:55.762Z,39
2022-08-05T17:10:12.012Z,39
2022-08-05T17:11:28.243Z,39
2022-08-05T17:12:44.490Z,39
2022-08-05T17:14:00.721Z,39
2022-08-05T17:15:16.966Z,28
2022-08-05T17:16:33.200Z,28
2022-08-05T17:17:49.432Z,33
2022-08-05T17:19:05.674Z,33
2022-08-05T17:20:20.920Z,28
2022-08-05T17:21:37.169Z,33
2022-08-05T17:22:53.401Z,33
2022-08-05T17:24:09.638Z,39
2022-08-05T17:25:25.878Z,39
2022-08-05T17:26:42.128Z,45
2022-08-05T17:27:58.360Z,45
2022-08-05T17:29:14.599Z,45
2022-08-05T17:30:30.836Z,45
2022-08-05T17:31:47.076Z,45
2022-08-05T17:33:03.307Z,45
2022-08-05T17:34:19.550Z,45
2022-08-05T17:35:35.795Z,39
2022-08-05T17:36:51.044Z,39
2022-08-05T17:38:07.276Z,39
2022-08-05T17:39:23.514Z,39
2022-08-05T17:40:39.765Z,39
2022-08-05T17:41:55.991Z,33
2022-08-05T17:43:12.234Z,33
2022-08-05T17:44:28.475Z,33
2022-08-05T17:45:44.712Z,33
2022-08-05T17:47:00.947Z,33
2022-08-05T17:48:17.194Z,33
2022-08-05T17:49:33.431Z,33
2022-08-05T17:50:49.674Z,33
2022-08-05T17:52:05.919Z,33
2022-08-05T17:53:21.176Z,33